sensor_id;sensor_type;location;lat;lon;timestamp;pressure;altitude;pressure_sealevel;temperature;humidity
30021;BME280;16861;52.294;7.760;2023-03-21T00:00:41;99845.38;;;10.98;71.79
30021;BME280;16861;52.294;7.760;2023-03-21T00:03:08;99849.69;;;10.99;71.71
30021;BME280;16861;52.294;7.760;2023-03-21T00:05:41;99845.38;;;10.98;71.64
30021;BME280;16861;52.294;7.760;2023-03-21T00:08:08;99851.41;;;11.00;71.53
30021;BME280;16861;52.294;7.760;2023-03-21T00:10:35;99845.19;;;11.01;71.38
30021;BME280;16861;52.294;7.760;2023-03-21T00:13:13;99840.75;;;11.02;71.51
30021;BME280;16861;52.294;7.760;2023-03-21T00:15:41;99843.31;;;11.03;71.34
30021;BME280;16861;52.294;7.760;2023-03-21T00:18:30;99841.44;;;11.05;71.34
30021;BME280;16861;52.294;7.760;2023-03-21T00:21:01;99839.56;;;11.07;71.66
30021;BME280;16861;52.294;7.760;2023-03-21T00:23:48;99839.47;;;11.09;71.27
30021;BME280;16861;52.294;7.760;2023-03-21T00:26:14;99832.44;;;11.10;71.16
30021;BME280;16861;52.294;7.760;2023-03-21T00:28:42;99841.09;;;11.12;71.16
30021;BME280;16861;52.294;7.760;2023-03-21T00:31:09;99832.22;;;11.13;71.19
30021;BME280;16861;52.294;7.760;2023-03-21T00:33:36;99838.28;;;11.15;70.99
30021;BME280;16861;52.294;7.760;2023-03-21T00:36:06;99831.13;;;11.17;71.04
30021;BME280;16861;52.294;7.760;2023-03-21T00:38:33;99831.91;;;11.19;70.97
30021;BME280;16861;52.294;7.760;2023-03-21T00:41:03;99837.09;;;11.20;70.81
30021;BME280;16861;52.294;7.760;2023-03-21T00:43:48;99823.69;;;11.24;70.59
30021;BME280;16861;52.294;7.760;2023-03-21T00:46:17;99814.88;;;11.25;70.70
30021;BME280;16861;52.294;7.760;2023-03-21T00:48:44;99813.84;;;11.27;70.63
30021;BME280;16861;52.294;7.760;2023-03-21T00:51:13;99819.03;;;11.29;70.81
30021;BME280;16861;52.294;7.760;2023-03-21T00:53:41;99816.19;;;11.32;70.44
30021;BME280;16861;52.294;7.760;2023-03-21T00:56:08;99806.50;;;11.32;70.46
30021;BME280;16861;52.294;7.760;2023-03-21T00:58:35;99797.56;;;11.35;70.35
30021;BME280;16861;52.294;7.760;2023-03-21T01:01:02;99800.22;;;11.35;70.36
30021;BME280;16861;52.294;7.760;2023-03-21T01:03:29;99800.03;;;11.38;70.23
30021;BME280;16861;52.294;7.760;2023-03-21T01:05:56;99797.31;;;11.40;70.15
30021;BME280;16861;52.294;7.760;2023-03-21T01:08:34;99802.59;;;11.40;70.05
30021;BME280;16861;52.294;7.760;2023-03-21T01:11:19;99794.59;;;11.41;70.03
30021;BME280;16861;52.294;7.760;2023-03-21T01:13:46;99796.19;;;11.44;70.14
30021;BME280;16861;52.294;7.760;2023-03-21T01:16:26;99795.25;;;11.45;69.87
30021;BME280;16861;52.294;7.760;2023-03-21T01:18:52;99786.38;;;11.46;69.82
30021;BME280;16861;52.294;7.760;2023-03-21T01:21:19;99786.38;;;11.46;69.93
30021;BME280;16861;52.294;7.760;2023-03-21T01:23:46;99782.81;;;11.47;69.96
30021;BME280;16861;52.294;7.760;2023-03-21T01:26:13;99776.69;;;11.46;69.98
30021;BME280;16861;52.294;7.760;2023-03-21T01:28:41;99788.94;;;11.47;69.72
30021;BME280;16861;52.294;7.760;2023-03-21T01:31:13;99776.69;;;11.46;69.50
30021;BME280;16861;52.294;7.760;2023-03-21T01:33:40;99781.03;;;11.47;69.68
30021;BME280;16861;52.294;7.760;2023-03-21T01:36:07;99778.41;;;11.47;69.71
30021;BME280;16861;52.294;7.760;2023-03-21T01:38:40;99778.47;;;11.46;69.72
30021;BME280;16861;52.294;7.760;2023-03-21T01:41:06;99774.06;;;11.46;69.64
30021;BME280;16861;52.294;7.760;2023-03-21T01:43:44;99785.34;;;11.49;69.69
30021;BME280;16861;52.294;7.760;2023-03-21T01:48:40;99770.47;;;11.47;69.60
30021;BME280;16861;52.294;7.760;2023-03-21T01:51:09;99759.84;;;11.49;69.67
30021;BME280;16861;52.294;7.760;2023-03-21T01:53:37;99766.81;;;11.50;69.56
30021;BME280;16861;52.294;7.760;2023-03-21T01:56:11;99763.44;;;11.48;69.70
30021;BME280;16861;52.294;7.760;2023-03-21T01:58:40;99758.03;;;11.50;69.55
30021;BME280;16861;52.294;7.760;2023-03-21T02:01:08;99764.09;;;11.52;69.48
30021;BME280;16861;52.294;7.760;2023-03-21T02:03:35;99764.94;;;11.52;69.58
30021;BME280;16861;52.294;7.760;2023-03-21T02:06:12;99759.84;;;11.49;69.61
30021;BME280;16861;52.294;7.760;2023-03-21T02:08:40;99754.28;;;11.54;69.71
30021;BME280;16861;52.294;7.760;2023-03-21T02:11:07;99754.28;;;11.54;69.57
30021;BME280;16861;52.294;7.760;2023-03-21T02:13:35;99743.75;;;11.54;69.71
30021;BME280;16861;52.294;7.760;2023-03-21T02:16:10;99754.28;;;11.54;69.57
30021;BME280;16861;52.294;7.760;2023-03-21T02:27:16;99742.13;;;11.51;69.73
30021;BME280;16861;52.294;7.760;2023-03-21T02:30:13;99738.59;;;11.52;69.79
30021;BME280;16861;52.294;7.760;2023-03-21T02:38:36;99730.56;;;11.54;69.55
30021;BME280;16861;52.294;7.760;2023-03-21T02:43:51;99734.06;;;11.54;69.77
30021;BME280;16861;52.294;7.760;2023-03-21T02:46:29;99733.31;;;11.52;69.79
30021;BME280;16861;52.294;7.760;2023-03-21T02:52:13;99730.56;;;11.54;69.63
30021;BME280;16861;52.294;7.760;2023-03-21T02:54:58;99729.50;;;11.56;69.75
30021;BME280;16861;52.294;7.760;2023-03-21T02:57:26;99732.16;;;11.56;69.65
30021;BME280;16861;52.294;7.760;2023-03-21T03:00:09;99729.50;;;11.56;69.74
30021;BME280;16861;52.294;7.760;2023-03-21T03:02:42;99730.38;;;11.57;69.59
30021;BME280;16861;52.294;7.760;2023-03-21T03:05:23;99725.41;;;11.52;69.83
30021;BME280;16861;52.294;7.760;2023-03-21T03:11:14;99718.22;;;11.54;69.83
30021;BME280;16861;52.294;7.760;2023-03-21T03:19:07;99721.91;;;11.52;69.93
30021;BME280;16861;52.294;7.760;2023-03-21T03:21:41;99712.41;;;11.49;70.10
30021;BME280;16861;52.294;7.760;2023-03-21T03:24:29;99713.13;;;11.51;70.27
30021;BME280;16861;52.294;7.760;2023-03-21T03:29:32;99714.09;;;11.50;69.91
30021;BME280;16861;52.294;7.760;2023-03-21T03:32:17;99711.72;;;11.45;70.48
30021;BME280;16861;52.294;7.760;2023-03-21T03:34:49;99715.03;;;11.49;70.13
30021;BME280;16861;52.294;7.760;2023-03-21T03:37:21;99716.00;;;11.48;70.44
30021;BME280;16861;52.294;7.760;2023-03-21T03:42:56;99706.38;;;11.47;70.45
30021;BME280;16861;52.294;7.760;2023-03-21T03:45:33;99714.47;;;11.44;71.12
30021;BME280;16861;52.294;7.760;2023-03-21T03:48:03;99711.72;;;11.45;70.45
30021;BME280;16861;52.294;7.760;2023-03-21T03:50:42;99706.84;;;11.39;71.06
30021;BME280;16861;52.294;7.760;2023-03-21T03:55:44;99704.31;;;11.38;70.59
30021;BME280;16861;52.294;7.760;2023-03-21T03:58:11;99698.38;;;11.34;70.63
30021;BME280;16861;52.294;7.760;2023-03-21T04:00:50;99695.91;;;11.31;71.13
30021;BME280;16861;52.294;7.760;2023-03-21T04:03:17;99690.84;;;11.28;70.82
30021;BME280;16861;52.294;7.760;2023-03-21T04:05:43;99690.94;;;11.26;71.23
30021;BME280;16861;52.294;7.760;2023-03-21T04:08:14;99693.75;;;11.23;71.39
30021;BME280;16861;52.294;7.760;2023-03-21T04:10:42;99694.81;;;11.20;71.45
30021;BME280;16861;52.294;7.760;2023-03-21T04:13:09;99690.56;;;11.18;71.23
30021;BME280;16861;52.294;7.760;2023-03-21T04:15:36;99691.59;;;11.15;71.71
30021;BME280;16861;52.294;7.760;2023-03-21T04:18:02;99692.59;;;11.13;71.93
30021;BME280;16861;52.294;7.760;2023-03-21T04:20:29;99690.09;;;11.11;71.89
30021;BME280;16861;52.294;7.760;2023-03-21T04:23:02;99687.63;;;11.08;72.02
30021;BME280;16861;52.294;7.760;2023-03-21T04:25:32;99684.22;;;11.06;72.58
30021;BME280;16861;52.294;7.760;2023-03-21T04:28:00;99683.41;;;11.05;72.24
30021;BME280;16861;52.294;7.760;2023-03-21T04:30:26;99686.13;;;11.04;72.38
30021;BME280;16861;52.294;7.760;2023-03-21T04:32:52;99683.56;;;11.02;72.58
30021;BME280;16861;52.294;7.760;2023-03-21T04:35:22;99680.84;;;11.04;72.74
30021;BME280;16861;52.294;7.760;2023-03-21T04:37:49;99675.59;;;11.04;72.58
30021;BME280;16861;52.294;7.760;2023-03-21T04:40:16;99676.53;;;11.03;72.76
30021;BME280;16861;52.294;7.760;2023-03-21T04:42:46;99677.28;;;11.05;72.68
30021;BME280;16861;52.294;7.760;2023-03-21T04:45:14;99677.28;;;11.05;72.74
30021;BME280;16861;52.294;7.760;2023-03-21T04:47:41;99667.59;;;11.05;72.79
30021;BME280;16861;52.294;7.760;2023-03-21T04:50:09;99668.44;;;11.06;72.84
30021;BME280;16861;52.294;7.760;2023-03-21T04:52:36;99670.16;;;11.07;72.79
30021;BME280;16861;52.294;7.760;2023-03-21T04:55:02;99674.47;;;11.08;72.99
30021;BME280;16861;52.294;7.760;2023-03-21T04:57:29;99673.53;;;11.09;72.83
30021;BME280;16861;52.294;7.760;2023-03-21T04:59:56;99667.44;;;11.08;72.86
30021;BME280;16861;52.294;7.760;2023-03-21T05:02:22;99669.09;;;11.10;72.63
30021;BME280;16861;52.294;7.760;2023-03-21T05:04:48;99671.75;;;11.10;72.69
30021;BME280;16861;52.294;7.760;2023-03-21T05:07:15;99670.97;;;11.07;72.69
30021;BME280;16861;52.294;7.760;2023-03-21T05:09:41;99666.56;;;11.08;72.81
30021;BME280;16861;52.294;7.760;2023-03-21T05:12:08;99661.38;;;11.06;72.61
30021;BME280;16861;52.294;7.760;2023-03-21T05:14:34;99664.97;;;11.05;72.91
30021;BME280;16861;52.294;7.760;2023-03-21T05:17:00;99658.75;;;11.06;72.87
30021;BME280;16861;52.294;7.760;2023-03-21T05:19:31;99659.69;;;11.05;72.90
30021;BME280;16861;52.294;7.760;2023-03-21T05:22:03;99656.28;;;11.03;72.97
30021;BME280;16861;52.294;7.760;2023-03-21T05:24:31;99656.13;;;11.06;72.82
30021;BME280;16861;52.294;7.760;2023-03-21T05:26:59;99651.72;;;11.07;72.83
30021;BME280;16861;52.294;7.760;2023-03-21T05:29:28;99653.47;;;11.06;73.06
30021;BME280;16861;52.294;7.760;2023-03-21T05:31:57;99654.44;;;11.05;73.08
30021;BME280;16861;52.294;7.760;2023-03-21T05:34:24;99648.22;;;11.06;72.96
30021;BME280;16861;52.294;7.760;2023-03-21T05:36:52;99647.25;;;11.07;73.01
30021;BME280;16861;52.294;7.760;2023-03-21T05:39:19;99646.44;;;11.07;73.09
30021;BME280;16861;52.294;7.760;2023-03-21T05:41:46;99649.06;;;11.07;72.75
30021;BME280;16861;52.294;7.760;2023-03-21T05:44:12;99648.22;;;11.06;73.09
30021;BME280;16861;52.294;7.760;2023-03-21T05:46:39;99648.13;;;11.08;73.00
30021;BME280;16861;52.294;7.760;2023-03-21T05:49:05;99652.53;;;11.07;73.14
30021;BME280;16861;52.294;7.760;2023-03-21T05:51:31;99651.78;;;11.05;73.17
30021;BME280;16861;52.294;7.760;2023-03-21T05:53:58;99646.53;;;11.05;73.00
30021;BME280;16861;52.294;7.760;2023-03-21T05:56:24;99658.00;;;11.04;73.14
30021;BME280;16861;52.294;7.760;2023-03-21T05:58:50;99651.97;;;11.02;73.07
30021;BME280;16861;52.294;7.760;2023-03-21T06:01:17;99653.75;;;11.02;73.49
30021;BME280;16861;52.294;7.760;2023-03-21T06:03:44;99653.88;;;11.00;73.37
30021;BME280;16861;52.294;7.760;2023-03-21T06:06:10;99655.56;;;11.01;73.45
30021;BME280;16861;52.294;7.760;2023-03-21T06:08:37;99657.31;;;11.01;73.46
30021;BME280;16861;52.294;7.760;2023-03-21T06:11:19;99659.22;;;10.99;74.36
30021;BME280;16861;52.294;7.760;2023-03-21T06:13:48;99655.47;;;11.03;73.60
30021;BME280;16861;52.294;7.760;2023-03-21T06:16:15;99661.56;;;11.03;73.53
30021;BME280;16861;52.294;7.760;2023-03-21T06:18:41;99664.00;;;11.06;73.65
30021;BME280;16861;52.294;7.760;2023-03-21T06:21:07;99659.59;;;11.07;73.79
30021;BME280;16861;52.294;7.760;2023-03-21T06:23:34;99658.75;;;11.06;73.73
30021;BME280;16861;52.294;7.760;2023-03-21T06:26:02;99665.63;;;11.09;73.62
30021;BME280;16861;52.294;7.760;2023-03-21T06:28:29;99665.53;;;11.11;73.61
30021;BME280;16861;52.294;7.760;2023-03-21T06:30:57;99659.41;;;11.10;73.56
30021;BME280;16861;52.294;7.760;2023-03-21T06:33:24;99670.63;;;11.14;73.72
30021;BME280;16861;52.294;7.760;2023-03-21T06:35:55;99665.44;;;11.12;73.90
30021;BME280;16861;52.294;7.760;2023-03-21T06:38:23;99664.41;;;11.15;73.72
30021;BME280;16861;52.294;7.760;2023-03-21T06:40:50;99661.69;;;11.16;73.57
30021;BME280;16861;52.294;7.760;2023-03-21T06:43:17;99659.69;;;11.20;73.79
30021;BME280;16861;52.294;7.760;2023-03-21T06:45:43;99670.06;;;11.23;73.50
30021;BME280;16861;52.294;7.760;2023-03-21T06:48:10;99670.88;;;11.24;73.58
30021;BME280;16861;52.294;7.760;2023-03-21T06:50:37;99666.47;;;11.24;73.40
30021;BME280;16861;52.294;7.760;2023-03-21T06:53:04;99669.88;;;11.26;73.35
30021;BME280;16861;52.294;7.760;2023-03-21T06:55:30;99671.47;;;11.29;73.14
30021;BME280;16861;52.294;7.760;2023-03-21T06:57:58;99667.03;;;11.29;73.22
30021;BME280;16861;52.294;7.760;2023-03-21T07:00:24;99669.66;;;11.29;73.14
30021;BME280;16861;52.294;7.760;2023-03-21T07:02:51;99667.78;;;11.31;73.12
30021;BME280;16861;52.294;7.760;2023-03-21T07:05:19;99669.56;;;11.31;73.10
30021;BME280;16861;52.294;7.760;2023-03-21T07:07:45;99668.63;;;11.32;73.13
30021;BME280;16861;52.294;7.760;2023-03-21T07:10:12;99664.22;;;11.32;73.10
30021;BME280;16861;52.294;7.760;2023-03-21T07:12:38;99673.06;;;11.31;73.00
30021;BME280;16861;52.294;7.760;2023-03-21T07:15:06;99664.31;;;11.31;73.18
30021;BME280;16861;52.294;7.760;2023-03-21T07:17:32;99673.06;;;11.31;73.10
30021;BME280;16861;52.294;7.760;2023-03-21T07:19:59;99662.53;;;11.31;73.15
30021;BME280;16861;52.294;7.760;2023-03-21T07:22:25;99673.06;;;11.31;73.31
30021;BME280;16861;52.294;7.760;2023-03-21T07:24:51;99670.53;;;11.30;73.10
30021;BME280;16861;52.294;7.760;2023-03-21T07:27:30;99670.59;;;11.28;73.36
30021;BME280;16861;52.294;7.760;2023-03-21T07:29:57;99677.66;;;11.28;73.22
30021;BME280;16861;52.294;7.760;2023-03-21T07:32:23;99673.34;;;11.27;73.46
30021;BME280;16861;52.294;7.760;2023-03-21T07:34:55;99671.75;;;11.24;73.70
30021;BME280;16861;52.294;7.760;2023-03-21T07:37:21;99670.06;;;11.23;73.71
30021;BME280;16861;52.294;7.760;2023-03-21T07:39:49;99673.41;;;11.25;73.92
30021;BME280;16861;52.294;7.760;2023-03-21T07:42:16;99675.13;;;11.26;73.96
30021;BME280;16861;52.294;7.760;2023-03-21T07:44:44;99678.69;;;11.25;74.03
30021;BME280;16861;52.294;7.760;2023-03-21T07:47:11;99678.59;;;11.27;74.03
30021;BME280;16861;52.294;7.760;2023-03-21T07:49:37;99674.19;;;11.27;73.88
30021;BME280;16861;52.294;7.760;2023-03-21T07:52:04;99682.94;;;11.28;74.08
30021;BME280;16861;52.294;7.760;2023-03-21T07:54:32;99678.50;;;11.28;74.15
30021;BME280;16861;52.294;7.760;2023-03-21T07:56:58;99677.66;;;11.28;74.42
30021;BME280;16861;52.294;7.760;2023-03-21T07:59:25;99682.09;;;11.27;74.42
30021;BME280;16861;52.294;7.760;2023-03-21T08:01:51;99675.97;;;11.27;74.57
30021;BME280;16861;52.294;7.760;2023-03-21T08:04:18;99677.78;;;11.26;74.72
30021;BME280;16861;52.294;7.760;2023-03-21T08:06:45;99682.09;;;11.27;74.96
30021;BME280;16861;52.294;7.760;2023-03-21T08:09:18;99677.94;;;11.23;75.43
30021;BME280;16861;52.294;7.760;2023-03-21T08:11:44;99673.41;;;11.25;75.12
30021;BME280;16861;52.294;7.760;2023-03-21T08:14:11;99682.19;;;11.26;75.41
30021;BME280;16861;52.294;7.760;2023-03-21T08:16:37;99677.88;;;11.25;75.23
30021;BME280;16861;52.294;7.760;2023-03-21T08:19:04;99674.28;;;11.26;75.68
30021;BME280;16861;52.294;7.760;2023-03-21T08:21:31;99672.50;;;11.26;75.51
30021;BME280;16861;52.294;7.760;2023-03-21T08:23:57;99678.59;;;11.27;75.52
30021;BME280;16861;52.294;7.760;2023-03-21T08:26:23;99679.38;;;11.29;75.90
30021;BME280;16861;52.294;7.760;2023-03-21T08:28:51;99680.28;;;11.28;75.77
30021;BME280;16861;52.294;7.760;2023-03-21T08:31:18;99681.16;;;11.28;75.74
30021;BME280;16861;52.294;7.760;2023-03-21T08:33:47;99680.19;;;11.29;75.70
30021;BME280;16861;52.294;7.760;2023-03-21T08:36:16;99680.19;;;11.29;75.92
30021;BME280;16861;52.294;7.760;2023-03-21T08:38:42;99677.56;;;11.29;75.86
30021;BME280;16861;52.294;7.760;2023-03-21T08:41:11;99685.47;;;11.29;75.99
30021;BME280;16861;52.294;7.760;2023-03-21T08:43:37;99683.69;;;11.30;76.20
30021;BME280;16861;52.294;7.760;2023-03-21T08:46:04;99684.66;;;11.29;76.31
30021;BME280;16861;52.294;7.760;2023-03-21T08:48:31;99680.19;;;11.29;76.25
30021;BME280;16861;52.294;7.760;2023-03-21T08:51:00;99681.06;;;11.30;76.66
30021;BME280;16861;52.294;7.760;2023-03-21T08:53:27;99673.91;;;11.32;76.71
30021;BME280;16861;52.294;7.760;2023-03-21T08:55:53;99673.81;;;11.33;76.91
30021;BME280;16861;52.294;7.760;2023-03-21T08:58:19;99675.41;;;11.36;76.93
30021;BME280;16861;52.294;7.760;2023-03-21T09:00:47;99664.75;;;11.38;77.04
30021;BME280;16861;52.294;7.760;2023-03-21T09:03:13;99665.53;;;11.40;77.21
30021;BME280;16861;52.294;7.760;2023-03-21T09:05:40;99667.97;;;11.43;77.28
30021;BME280;16861;52.294;7.760;2023-03-21T09:08:06;99661.56;;;11.47;77.15
30021;BME280;16861;52.294;7.760;2023-03-21T09:10:33;99662.31;;;11.49;77.12
30021;BME280;16861;52.294;7.760;2023-03-21T09:12:59;99658.66;;;11.52;77.22
30021;BME280;16861;52.294;7.760;2023-03-21T09:15:26;99653.28;;;11.53;77.10
30021;BME280;16861;52.294;7.760;2023-03-21T09:17:55;99667.09;;;11.57;77.33
30021;BME280;16861;52.294;7.760;2023-03-21T09:20:25;99658.06;;;11.61;77.33
30021;BME280;16861;52.294;7.760;2023-03-21T09:22:56;99669.25;;;11.65;76.96
30021;BME280;16861;52.294;7.760;2023-03-21T09:25:23;99669.06;;;11.68;77.18
30021;BME280;16861;52.294;7.760;2023-03-21T09:27:50;99662.84;;;11.69;76.78
30021;BME280;16861;52.294;7.760;2023-03-21T09:30:19;99661.91;;;11.70;76.90
30021;BME280;16861;52.294;7.760;2023-03-21T09:32:48;99664.44;;;11.71;76.90
30021;BME280;16861;52.294;7.760;2023-03-21T09:35:16;99654.75;;;11.72;76.89
30021;BME280;16861;52.294;7.760;2023-03-21T09:37:45;99652.97;;;11.72;76.89
30021;BME280;16861;52.294;7.760;2023-03-21T09:40:20;99658.34;;;11.71;76.92
30021;BME280;16861;52.294;7.760;2023-03-21T09:45:54;99648.75;;;11.70;76.99
30021;BME280;16861;52.294;7.760;2023-03-21T09:51:02;99645.88;;;11.73;77.09
30021;BME280;16861;52.294;7.760;2023-03-21T09:53:36;99647.59;;;11.74;77.05
30021;BME280;16861;52.294;7.760;2023-03-21T09:56:08;99650.13;;;11.76;77.08
30021;BME280;16861;52.294;7.760;2023-03-21T09:58:42;99643.78;;;11.78;77.24
30021;BME280;16861;52.294;7.760;2023-03-21T10:01:30;99642.97;;;11.78;77.60
30021;BME280;16861;52.294;7.760;2023-03-21T10:04:10;99643.50;;;11.83;77.39
30021;BME280;16861;52.294;7.760;2023-03-21T10:06:40;99645.09;;;11.85;77.36
30021;BME280;16861;52.294;7.760;2023-03-21T10:09:17;99641.63;;;11.85;77.25
30021;BME280;16861;52.294;7.760;2023-03-21T10:12:03;99645.75;;;11.89;77.11
30021;BME280;16861;52.294;7.760;2023-03-21T10:14:44;99652.81;;;11.89;77.04
30021;BME280;16861;52.294;7.760;2023-03-21T10:20:19;99649.25;;;11.90;76.89
30021;BME280;16861;52.294;7.760;2023-03-21T10:22:48;99649.88;;;11.93;76.70
30021;BME280;16861;52.294;7.760;2023-03-21T10:25:31;99643.00;;;11.91;76.84
30021;BME280;16861;52.294;7.760;2023-03-21T10:27:58;99634.03;;;11.93;76.91
30021;BME280;16861;52.294;7.760;2023-03-21T10:30:38;99635.94;;;11.91;76.78
30021;BME280;16861;52.294;7.760;2023-03-21T10:33:10;99633.31;;;11.91;76.90
30021;BME280;16861;52.294;7.760;2023-03-21T10:35:40;99635.94;;;11.91;76.77
30021;BME280;16861;52.294;7.760;2023-03-21T10:38:16;99636.91;;;11.90;76.94
30021;BME280;16861;52.294;7.760;2023-03-21T10:40:43;99629.81;;;11.91;76.84
30021;BME280;16861;52.294;7.760;2023-03-21T10:43:15;99637.53;;;11.94;76.61
30021;BME280;16861;52.294;7.760;2023-03-21T10:48:15;99623.72;;;11.90;77.24
30021;BME280;16861;52.294;7.760;2023-03-21T10:50:46;99625.50;;;11.90;77.29
30021;BME280;16861;52.294;7.760;2023-03-21T10:53:22;99630.03;;;11.88;77.31
30021;BME280;16861;52.294;7.760;2023-03-21T10:55:55;99624.63;;;11.89;77.54
30021;BME280;16861;52.294;7.760;2023-03-21T10:58:29;99630.78;;;11.90;77.61
30021;BME280;16861;52.294;7.760;2023-03-21T11:01:02;99623.63;;;11.92;77.46
30021;BME280;16861;52.294;7.760;2023-03-21T11:03:34;99613.06;;;11.92;77.69
30021;BME280;16861;52.294;7.760;2023-03-21T11:06:07;99618.22;;;11.93;77.82
30021;BME280;16861;52.294;7.760;2023-03-21T11:08:44;99616.44;;;11.94;77.82
30021;BME280;16861;52.294;7.760;2023-03-21T11:11:19;99604.00;;;11.96;77.60
30021;BME280;16861;52.294;7.760;2023-03-21T11:13:55;99604.00;;;11.96;77.59
30021;BME280;16861;52.294;7.760;2023-03-21T11:19:00;99604.66;;;11.99;77.65
30021;BME280;16861;52.294;7.760;2023-03-21T11:21:34;99606.44;;;11.99;77.69
30021;BME280;16861;52.294;7.760;2023-03-21T11:24:02;99603.59;;;12.02;77.76
30021;BME280;16861;52.294;7.760;2023-03-21T11:26:35;99600.00;;;12.03;77.59
30021;BME280;16861;52.294;7.760;2023-03-21T11:29:37;99598.31;;;12.02;77.92
30021;BME280;16861;52.294;7.760;2023-03-21T11:32:11;99584.97;;;12.05;77.97
30021;BME280;16861;52.294;7.760;2023-03-21T11:34:50;99602.28;;;12.09;78.01
30021;BME280;16861;52.294;7.760;2023-03-21T11:37:33;99591.50;;;12.12;77.87
30021;BME280;16861;52.294;7.760;2023-03-21T11:40:12;99585.09;;;12.17;77.68
30021;BME280;16861;52.294;7.760;2023-03-21T11:42:45;99582.25;;;12.20;77.56
30021;BME280;16861;52.294;7.760;2023-03-21T11:45:16;99582.16;;;12.21;77.50
30021;BME280;16861;52.294;7.760;2023-03-21T11:47:44;99578.47;;;12.24;77.55
30021;BME280;16861;52.294;7.760;2023-03-21T11:50:33;99574.13;;;12.23;77.98
30021;BME280;16861;52.294;7.760;2023-03-21T12:06:35;99566.56;;;12.44;77.35
30021;BME280;16861;52.294;7.760;2023-03-21T12:17:05;99556.63;;;12.48;76.44
30021;BME280;16861;52.294;7.760;2023-03-21T12:25:21;99541.44;;;12.51;77.03
30021;BME280;16861;52.294;7.760;2023-03-21T12:30:43;99536.06;;;12.53;77.00
30021;BME280;16861;52.294;7.760;2023-03-21T12:44:23;99519.06;;;12.57;77.05
30021;BME280;16861;52.294;7.760;2023-03-21T12:46:58;99519.97;;;12.56;76.68
30021;BME280;16861;52.294;7.760;2023-03-21T12:50:11;99514.81;;;12.55;76.33
30021;BME280;16861;52.294;7.760;2023-03-21T12:52:43;99510.78;;;12.62;76.39
30021;BME280;16861;52.294;7.760;2023-03-21T12:58:10;99515.25;;;12.61;76.67
30021;BME280;16861;52.294;7.760;2023-03-21T13:00:45;99503.50;;;12.66;76.74
30021;BME280;16861;52.294;7.760;2023-03-21T13:05:46;99490.72;;;12.72;77.94
30021;BME280;16861;52.294;7.760;2023-03-21T13:08:22;99484.03;;;12.80;77.29
30021;BME280;16861;52.294;7.760;2023-03-21T13:10:49;99479.91;;;12.88;77.60
30021;BME280;16861;52.294;7.760;2023-03-21T13:13:25;99493.53;;;12.95;77.29
30021;BME280;16861;52.294;7.760;2023-03-21T13:16:11;99484.53;;;12.98;75.83
30021;BME280;16861;52.294;7.760;2023-03-21T13:21:49;99477.41;;;13.11;76.09
30021;BME280;16861;52.294;7.760;2023-03-21T13:29:46;99454.25;;;13.15;75.72
30021;BME280;16861;52.294;7.760;2023-03-21T13:32:28;99458.47;;;13.18;75.33
30021;BME280;16861;52.294;7.760;2023-03-21T13:34:58;99446.00;;;13.20;75.61
30021;BME280;16861;52.294;7.760;2023-03-21T13:37:32;99447.66;;;13.21;74.97
30021;BME280;16861;52.294;7.760;2023-03-21T13:40:03;99439.63;;;13.22;75.23
30021;BME280;16861;52.294;7.760;2023-03-21T13:42:45;99436.03;;;13.23;75.27
30021;BME280;16861;52.294;7.760;2023-03-21T13:45:43;99440.25;;;13.26;75.20
30021;BME280;16861;52.294;7.760;2023-03-21T13:48:26;99433.06;;;13.28;74.10
30021;BME280;16861;52.294;7.760;2023-03-21T13:53:37;99444.97;;;13.34;73.28
30021;BME280;16861;52.294;7.760;2023-03-21T14:04:18;99433.66;;;13.32;73.95
30021;BME280;16861;52.294;7.760;2023-03-21T14:06:57;99434.53;;;13.32;74.12
30021;BME280;16861;52.294;7.760;2023-03-21T14:09:33;99424.91;;;13.31;74.08
30021;BME280;16861;52.294;7.760;2023-03-21T14:12:02;99425.63;;;13.33;74.92
30021;BME280;16861;52.294;7.760;2023-03-21T14:14:37;99424.78;;;13.33;74.08
30021;BME280;16861;52.294;7.760;2023-03-21T14:20:13;99417.59;;;13.35;73.71
30021;BME280;16861;52.294;7.760;2023-03-21T14:22:41;99413.53;;;13.42;74.29
30021;BME280;16861;52.294;7.760;2023-03-21T14:25:13;99403.06;;;13.40;73.93
30021;BME280;16861;52.294;7.760;2023-03-21T14:27:52;99405.72;;;13.40;72.74
30021;BME280;16861;52.294;7.760;2023-03-21T14:30:24;99404.53;;;13.45;73.91
30021;BME280;16861;52.294;7.760;2023-03-21T14:32:59;99401.03;;;13.44;73.60
30021;BME280;16861;52.294;7.760;2023-03-21T14:35:29;99406.03;;;13.49;74.08
30021;BME280;16861;52.294;7.760;2023-03-21T14:38:04;99392.66;;;13.50;73.75
30021;BME280;16861;52.294;7.760;2023-03-21T14:40:32;99385.34;;;13.54;73.04
30021;BME280;16861;52.294;7.760;2023-03-21T14:43:03;99389.47;;;13.58;73.28
30021;BME280;16861;52.294;7.760;2023-03-21T14:48:34;99388.38;;;13.61;73.68
30021;BME280;16861;52.294;7.760;2023-03-21T14:51:04;99369.00;;;13.60;73.70
30021;BME280;16861;52.294;7.760;2023-03-21T14:53:35;99374.31;;;13.60;73.53
30021;BME280;16861;52.294;7.760;2023-03-21T14:56:09;99376.22;;;13.58;72.25
30021;BME280;16861;52.294;7.760;2023-03-21T14:58:41;99376.59;;;13.65;73.94
30021;BME280;16861;52.294;7.760;2023-03-21T15:01:16;99370.25;;;13.67;73.62
30021;BME280;16861;52.294;7.760;2023-03-21T15:03:49;99370.00;;;13.71;73.23
30021;BME280;16861;52.294;7.760;2023-03-21T15:06:16;99375.78;;;13.76;73.86
30021;BME280;16861;52.294;7.760;2023-03-21T15:08:54;99374.81;;;13.77;72.98
30021;BME280;16861;52.294;7.760;2023-03-21T15:11:32;99367.59;;;13.79;72.92
30021;BME280;16861;52.294;7.760;2023-03-21T15:14:02;99365.56;;;13.83;73.34
30021;BME280;16861;52.294;7.760;2023-03-21T15:16:30;99372.31;;;13.87;73.43
30021;BME280;16861;52.294;7.760;2023-03-21T15:18:58;99351.25;;;13.85;73.10
30021;BME280;16861;52.294;7.760;2023-03-21T15:21:36;99362.06;;;13.82;72.05
30021;BME280;16861;52.294;7.760;2023-03-21T15:24:31;99355.97;;;13.81;71.91